createdAt,value
2016-07-03T00:00:42.027Z,14.15
2016-07-03T00:01:41.414Z,14.23
2016-07-03T00:02:41.394Z,14.11
2016-07-03T00:03:41.372Z,14.14
2016-07-03T00:04:41.351Z,14.1
2016-07-03T00:05:41.323Z,14.14
2016-07-03T00:06:41.328Z,14.11
2016-07-03T00:07:41.275Z,14.15
2016-07-03T00:08:41.250Z,14.07
2016-07-03T00:09:41.229Z,14.05
2016-07-03T00:10:41.211Z,14.14
2016-07-03T00:11:41.184Z,14.03
2016-07-03T00:12:41.164Z,14.03
2016-07-03T00:13:41.156Z,14.03
2016-07-03T00:14:41.116Z,14
2016-07-03T00:15:41.095Z,13.9
2016-07-03T00:16:41.064Z,13.96
2016-07-03T00:17:41.055Z,14.04
2016-07-03T00:18:41.026Z,13.97
2016-07-03T00:19:40.999Z,14.03
2016-07-03T00:20:40.988Z,14
2016-07-03T00:21:40.960Z,13.95
2016-07-03T00:22:40.948Z,13.96
2016-07-03T00:23:40.910Z,13.93
2016-07-03T00:24:40.895Z,13.95
2016-07-03T00:25:40.857Z,13.97
2016-07-03T00:26:40.835Z,13.99
2016-07-03T00:27:40.804Z,13.92
2016-07-03T00:28:40.790Z,13.96
2016-07-03T00:29:40.767Z,13.99
2016-07-03T00:30:40.754Z,13.96
2016-07-03T00:31:40.728Z,13.93
2016-07-03T00:32:40.702Z,13.95
2016-07-03T00:33:40.694Z,13.96
2016-07-03T00:34:40.656Z,13.95
2016-07-03T00:35:40.637Z,13.93
2016-07-03T00:36:40.614Z,13.99
2016-07-03T00:37:40.603Z,13.9
2016-07-03T00:38:40.565Z,13.99
2016-07-03T00:39:40.549Z,13.92
2016-07-03T00:40:40.525Z,13.9
2016-07-03T00:41:40.490Z,13.87
2016-07-03T00:42:40.478Z,13.9
2016-07-03T00:43:40.453Z,13.89
2016-07-03T00:44:40.429Z,13.86
2016-07-03T00:45:40.414Z,13.9
2016-07-03T00:46:40.392Z,13.89
2016-07-03T00:47:40.363Z,13.89
2016-07-03T00:48:40.338Z,13.86
2016-07-03T00:49:40.316Z,13.89
2016-07-03T00:50:40.297Z,13.78
2016-07-03T00:51:40.274Z,13.89
2016-07-03T00:52:40.252Z,13.83
2016-07-03T00:53:40.223Z,13.86
2016-07-03T00:54:40.195Z,13.86
2016-07-03T00:55:40.181Z,13.89
2016-07-03T00:56:40.208Z,13.85
2016-07-03T00:57:40.133Z,13.89
2016-07-03T00:58:40.110Z,13.86
2016-07-03T00:59:40.089Z,13.81
2016-07-03T01:00:40.060Z,13.83
2016-07-03T01:01:40.049Z,13.86
2016-07-03T01:02:40.019Z,13.89
2016-07-03T01:03:39.992Z,13.86
2016-07-03T01:04:39.973Z,13.87
2016-07-03T01:05:39.949Z,13.87
2016-07-03T01:06:39.927Z,13.86
2016-07-03T01:07:39.903Z,13.92
2016-07-03T01:08:39.890Z,13.87
2016-07-03T01:09:39.852Z,13.87
2016-07-03T01:10:40.436Z,13.86
2016-07-03T01:11:39.803Z,13.87
2016-07-03T01:12:39.782Z,13.85
2016-07-03T01:13:39.755Z,13.86
2016-07-03T01:14:39.729Z,13.86
2016-07-03T01:15:39.707Z,13.87
2016-07-03T01:16:39.693Z,13.87
2016-07-03T01:17:39.660Z,13.89
2016-07-03T01:18:40.248Z,13.79
2016-07-03T01:19:39.632Z,13.86
2016-07-03T01:20:39.594Z,13.78
2016-07-03T01:21:39.592Z,13.81
2016-07-03T01:22:39.555Z,13.86
2016-07-03T01:23:39.532Z,13.79
2016-07-03T01:24:39.510Z,13.79
2016-07-03T01:25:39.479Z,13.81
2016-07-03T01:26:39.460Z,13.86
2016-07-03T01:27:39.438Z,13.83
2016-07-03T01:28:39.403Z,13.77
2016-07-03T01:29:39.393Z,13.86
2016-07-03T01:30:39.361Z,13.75
2016-07-03T01:31:39.346Z,13.74
2016-07-03T01:32:39.319Z,13.87
2016-07-03T01:33:39.299Z,13.85
2016-07-03T01:34:39.270Z,13.77
2016-07-03T01:35:39.246Z,13.81
2016-07-03T01:36:39.231Z,13.78
2016-07-03T01:37:39.201Z,13.79
2016-07-03T01:38:39.194Z,13.87
2016-07-03T01:39:39.148Z,13.81
2016-07-03T01:40:39.136Z,13.72
2016-07-03T01:41:39.109Z,13.7
2016-07-03T01:42:39.094Z,13.78
2016-07-03T01:43:39.065Z,13.75
2016-07-03T01:44:39.042Z,13.74
2016-07-03T01:45:39.018Z,13.71
2016-07-03T01:46:38.997Z,13.72
2016-07-03T01:47:38.990Z,13.74
2016-07-03T01:48:38.953Z,13.7
2016-07-03T01:49:38.925Z,13.79
2016-07-03T01:50:38.899Z,13.78
2016-07-03T01:51:38.883Z,13.75
2016-07-03T01:52:38.851Z,13.77
2016-07-03T01:53:38.832Z,13.7
2016-07-03T01:54:38.807Z,13.79
2016-07-03T01:55:38.785Z,13.74
2016-07-03T01:56:38.758Z,13.75
2016-07-03T01:57:38.738Z,13.72
2016-07-03T01:58:38.713Z,13.79
2016-07-03T01:59:38.690Z,13.71
2016-07-03T02:00:38.673Z,13.7
2016-07-03T02:01:38.652Z,13.7
2016-07-03T02:02:38.629Z,13.65
2016-07-03T02:03:38.606Z,13.67
2016-07-03T02:04:38.586Z,13.6
2016-07-03T02:05:38.561Z,13.72
2016-07-03T02:06:38.539Z,13.56
2016-07-03T02:07:38.511Z,13.6
2016-07-03T02:08:38.488Z,13.59
2016-07-03T02:09:38.535Z,13.54
2016-07-03T02:10:38.453Z,13.68
2016-07-03T02:11:38.423Z,13.59
2016-07-03T02:12:38.406Z,13.6
2016-07-03T02:13:38.374Z,13.54
2016-07-03T02:14:38.359Z,13.54
2016-07-03T02:15:38.328Z,13.57
2016-07-03T02:16:38.299Z,13.62
2016-07-03T02:17:38.279Z,13.6
2016-07-03T02:18:38.266Z,13.67
2016-07-03T02:19:38.228Z,13.6
2016-07-03T02:20:38.208Z,13.62
2016-07-03T02:21:38.179Z,13.62
2016-07-03T02:22:38.158Z,13.62
2016-07-03T02:23:38.135Z,13.67
2016-07-03T02:24:38.117Z,13.67
2016-07-03T02:25:38.094Z,13.65
2016-07-03T02:26:38.073Z,13.63
2016-07-03T02:27:38.053Z,13.65
2016-07-03T02:28:38.025Z,13.62
2016-07-03T02:29:38.000Z,13.6
2016-07-03T02:30:37.978Z,13.62
2016-07-03T02:31:37.957Z,13.63
2016-07-03T02:32:37.928Z,13.56
2016-07-03T02:33:37.908Z,13.57
2016-07-03T02:34:37.882Z,13.63
2016-07-03T02:35:37.859Z,13.49
2016-07-03T02:36:37.836Z,13.53
2016-07-03T02:37:37.810Z,13.57
2016-07-03T02:38:37.796Z,13.52
2016-07-03T02:39:37.770Z,13.52
2016-07-03T02:40:38.429Z,13.53
2016-07-03T02:41:37.723Z,13.49
2016-07-03T02:42:37.695Z,13.47
2016-07-03T02:43:37.681Z,13.54
2016-07-03T02:44:37.651Z,13.54
2016-07-03T02:45:37.629Z,13.52
2016-07-03T02:46:37.606Z,13.49
2016-07-03T02:47:37.584Z,13.5
2016-07-03T02:48:37.560Z,13.44
2016-07-03T02:49:37.535Z,13.52
2016-07-03T02:50:37.514Z,13.49
2016-07-03T02:51:37.490Z,13.52
2016-07-03T02:52:37.466Z,13.47
2016-07-03T02:53:37.443Z,13.5
2016-07-03T02:54:37.419Z,13.46
2016-07-03T02:55:37.398Z,13.44
2016-07-03T02:56:37.425Z,13.46
2016-07-03T02:57:37.347Z,13.38
2016-07-03T02:58:37.322Z,13.49
2016-07-03T02:59:37.301Z,13.46
2016-07-03T03:00:37.277Z,13.47
2016-07-03T03:01:37.258Z,13.42
2016-07-03T03:02:37.231Z,13.41
2016-07-03T03:03:37.200Z,13.39
2016-07-03T03:04:37.181Z,13.37
2016-07-03T03:05:37.156Z,13.46
2016-07-03T03:06:37.129Z,13.41
2016-07-03T03:07:37.105Z,13.46
2016-07-03T03:08:37.090Z,13.38
2016-07-03T03:09:37.068Z,13.37
2016-07-03T03:10:37.041Z,13.41
2016-07-03T03:11:37.016Z,13.44
2016-07-03T03:12:36.995Z,13.41
2016-07-03T03:13:36.974Z,13.44
2016-07-03T03:14:36.947Z,13.39
2016-07-03T03:15:36.923Z,13.38
2016-07-03T03:16:36.895Z,13.41
2016-07-03T03:17:36.877Z,13.41
2016-07-03T03:18:36.852Z,13.42
2016-07-03T03:19:36.828Z,13.41
2016-07-03T03:20:36.801Z,13.38
2016-07-03T03:21:36.784Z,13.42
2016-07-03T03:22:36.762Z,13.44
2016-07-03T03:23:36.738Z,13.37
2016-07-03T03:24:36.717Z,13.38
2016-07-03T03:25:36.690Z,13.42
2016-07-03T03:26:36.669Z,13.42
2016-07-03T03:27:36.634Z,13.41
2016-07-03T03:28:36.624Z,13.39
2016-07-03T03:29:36.597Z,13.47
2016-07-03T03:30:36.576Z,13.44
2016-07-03T03:31:36.550Z,13.46
2016-07-03T03:32:36.530Z,13.41
2016-07-03T03:33:36.518Z,13.42
2016-07-03T03:34:36.482Z,13.44
2016-07-03T03:35:36.458Z,13.52
2016-07-03T03:36:36.430Z,13.49
2016-07-03T03:37:36.405Z,13.46
2016-07-03T03:38:36.372Z,13.47
2016-07-03T03:39:36.357Z,13.46
2016-07-03T03:40:36.332Z,13.49
2016-07-03T03:41:36.307Z,13.5
2016-07-03T03:42:36.282Z,13.47
2016-07-03T03:43:36.258Z,13.44
2016-07-03T03:44:36.238Z,13.49
2016-07-03T03:45:36.226Z,13.44
2016-07-03T03:46:36.200Z,13.44
2016-07-03T03:47:36.183Z,13.44
2016-07-03T03:48:36.156Z,13.53
2016-07-03T03:49:36.133Z,13.49
2016-07-03T03:50:36.116Z,13.49
2016-07-03T03:51:36.085Z,13.52
2016-07-03T03:52:36.062Z,13.5
2016-07-03T03:53:36.042Z,13.57
2016-07-03T03:54:36.012Z,13.52
2016-07-03T03:55:35.990Z,13.47
2016-07-03T03:56:35.970Z,13.56
2016-07-03T03:57:35.947Z,13.62
2016-07-03T03:58:35.931Z,13.56
2016-07-03T03:59:35.902Z,13.62
2016-07-03T04:00:35.877Z,13.62
2016-07-03T04:01:35.857Z,13.59
2016-07-03T04:02:35.828Z,13.63
2016-07-03T04:03:35.805Z,13.59
2016-07-03T04:04:35.782Z,13.63
2016-07-03T04:05:35.760Z,13.54
2016-07-03T04:06:35.736Z,13.7
2016-07-03T04:07:35.716Z,13.72
2016-07-03T04:08:35.685Z,13.6
2016-07-03T04:09:35.671Z,13.62
2016-07-03T04:10:35.650Z,13.71
2016-07-03T04:11:35.623Z,13.71
2016-07-03T04:12:35.606Z,13.65
2016-07-03T04:13:35.578Z,13.68
2016-07-03T04:14:35.551Z,13.59
2016-07-03T04:15:35.535Z,13.74
2016-07-03T04:16:35.505Z,13.67
2016-07-03T04:17:35.485Z,13.65
2016-07-03T04:18:35.460Z,13.7
2016-07-03T04:19:35.436Z,13.68
2016-07-03T04:20:35.416Z,13.72
2016-07-03T04:21:35.397Z,13.7
2016-07-03T04:22:35.365Z,13.72
2016-07-03T04:23:35.356Z,13.75
2016-07-03T04:24:35.325Z,13.74
2016-07-03T04:25:35.302Z,13.78
2016-07-03T04:26:35.273Z,13.78
2016-07-03T04:27:35.256Z,13.79
2016-07-03T04:28:35.237Z,13.86
2016-07-03T04:29:35.216Z,13.86
2016-07-03T04:30:35.182Z,13.87
2016-07-03T04:31:35.175Z,13.89
2016-07-03T04:32:35.146Z,13.86
2016-07-03T04:33:35.126Z,14.03
2016-07-03T04:34:35.102Z,13.97
2016-07-03T04:35:35.079Z,14.05
2016-07-03T04:36:35.057Z,14.04
2016-07-03T04:37:35.034Z,13.96
2016-07-03T04:38:35.011Z,14.07
2016-07-03T04:39:34.990Z,14.05
2016-07-03T04:40:34.968Z,14.12
2016-07-03T04:41:34.946Z,14.14
2016-07-03T04:42:34.922Z,14.11
2016-07-03T04:43:34.896Z,14.25
2016-07-03T04:44:34.879Z,14.18
2016-07-03T04:45:34.859Z,14.22
2016-07-03T04:46:34.830Z,14.3
2016-07-03T04:47:34.815Z,14.33
2016-07-03T04:48:34.792Z,14.35
2016-07-03T04:49:35.367Z,14.36
2016-07-03T04:50:34.755Z,14.35
2016-07-03T04:51:34.730Z,14.47
2016-07-03T04:52:34.706Z,14.53
2016-07-03T04:53:34.686Z,14.51
2016-07-03T04:54:34.662Z,14.58
2016-07-03T04:55:34.639Z,14.65
2016-07-03T04:56:34.617Z,14.68
2016-07-03T04:57:34.594Z,14.78
2016-07-03T04:58:34.570Z,14.78
2016-07-03T04:59:34.558Z,14.91
2016-07-03T05:00:34.531Z,14.91
2016-07-03T05:01:34.511Z,14.96
2016-07-03T05:02:34.485Z,14.99
2016-07-03T05:03:35.070Z,15.07
2016-07-03T05:04:34.450Z,15.18
2016-07-03T05:05:34.423Z,15.1
2016-07-03T05:06:34.405Z,15.07
2016-07-03T05:07:34.387Z,15.06
2016-07-03T05:08:34.362Z,15.17
2016-07-03T05:09:34.341Z,15.15
2016-07-03T05:10:34.315Z,15.11
2016-07-03T05:11:34.297Z,15.11
2016-07-03T05:12:34.271Z,15.14
2016-07-03T05:13:34.258Z,15.06
2016-07-03T05:14:34.231Z,15.1
2016-07-03T05:15:34.209Z,15.11
2016-07-03T05:16:34.187Z,15.07
2016-07-03T05:17:34.191Z,15.09
2016-07-03T05:18:34.146Z,15.18
2016-07-03T05:19:34.132Z,15.24
2016-07-03T05:20:34.115Z,15.21
2016-07-03T05:21:34.092Z,15.28
2016-07-03T05:22:34.069Z,15.22
2016-07-03T05:23:34.052Z,15.22
2016-07-03T05:24:34.634Z,15.31
2016-07-03T05:25:34.015Z,15.31
2016-07-03T05:26:33.992Z,15.29
2016-07-03T05:27:33.975Z,15.24
2016-07-03T05:28:33.951Z,15.28
2016-07-03T05:29:34.533Z,15.29
2016-07-03T05:30:33.915Z,15.29
2016-07-03T05:31:33.901Z,15.28
2016-07-03T05:32:34.469Z,15.4
2016-07-03T05:33:33.856Z,15.46
2016-07-03T05:34:33.830Z,15.49
2016-07-03T05:35:33.813Z,15.52
2016-07-03T05:36:33.789Z,15.54
2016-07-03T05:37:33.770Z,15.47
2016-07-03T05:38:33.746Z,15.61
2016-07-03T05:39:33.730Z,15.58
2016-07-03T05:40:33.707Z,15.54
2016-07-03T05:41:33.690Z,15.61
2016-07-03T05:42:33.670Z,15.61
2016-07-03T05:43:33.652Z,15.58
2016-07-03T05:44:33.629Z,15.55
2016-07-03T05:45:33.614Z,15.55
2016-07-03T05:46:33.589Z,15.57
2016-07-03T05:47:33.570Z,15.54
2016-07-03T05:48:33.553Z,15.58
2016-07-03T05:49:33.530Z,15.64
2016-07-03T05:50:33.505Z,15.54
2016-07-03T05:51:33.486Z,15.57
2016-07-03T05:52:33.468Z,15.64
2016-07-03T05:53:33.459Z,15.62
2016-07-03T05:54:33.425Z,15.57
2016-07-03T05:55:33.406Z,15.61
2016-07-03T05:56:33.387Z,15.64
2016-07-03T05:57:33.368Z,15.7
2016-07-03T05:58:33.349Z,15.58
2016-07-03T05:59:33.328Z,15.59
2016-07-03T06:00:33.310Z,15.64
2016-07-03T06:01:33.289Z,15.67
2016-07-03T06:02:33.269Z,15.64
2016-07-03T06:03:33.256Z,15.58
2016-07-03T06:04:33.228Z,15.61
2016-07-03T06:05:33.209Z,15.72
2016-07-03T06:06:33.189Z,15.7
2016-07-03T06:07:33.168Z,15.73
2016-07-03T06:08:33.148Z,15.72
2016-07-03T06:09:33.128Z,15.79
2016-07-03T06:10:33.109Z,15.67
2016-07-03T06:11:33.088Z,15.75
2016-07-03T06:12:33.069Z,15.72
2016-07-03T06:13:33.049Z,15.76
2016-07-03T06:14:33.029Z,15.72
2016-07-03T06:15:33.008Z,15.79
2016-07-03T06:16:32.991Z,15.83
2016-07-03T06:17:32.969Z,15.79
2016-07-03T06:18:32.949Z,15.76
2016-07-03T06:19:32.931Z,15.82
2016-07-03T06:20:33.564Z,15.73
2016-07-03T06:21:32.894Z,15.82
2016-07-03T06:22:32.876Z,15.83
2016-07-03T06:23:32.857Z,15.82
2016-07-03T06:24:32.830Z,15.75
2016-07-03T06:25:32.813Z,15.83
2016-07-03T06:26:32.788Z,15.88
2016-07-03T06:27:32.778Z,15.91
2016-07-03T06:28:32.755Z,16.05
2016-07-03T06:29:32.736Z,16.05
2016-07-03T06:30:32.720Z,16.04
2016-07-03T06:31:32.699Z,16.1
2016-07-03T06:32:32.684Z,16.02
2016-07-03T06:33:32.664Z,16.09
2016-07-03T06:34:32.636Z,16.05
2016-07-03T06:35:32.614Z,16.13
2016-07-03T06:36:32.599Z,16.32
2016-07-03T06:37:32.581Z,16.35
2016-07-03T06:38:32.568Z,16.39
2016-07-03T06:39:32.538Z,16.39
2016-07-03T06:40:32.531Z,16.32
2016-07-03T06:41:32.507Z,16.41
2016-07-03T06:42:32.485Z,16.39
2016-07-03T06:43:32.457Z,16.28
2016-07-03T06:44:32.449Z,16.33
2016-07-03T06:45:32.423Z,16.17
2016-07-03T06:46:32.404Z,16.23
2016-07-03T06:47:32.386Z,16.13
2016-07-03T06:48:32.367Z,16.2
2016-07-03T06:49:32.347Z,16.21
2016-07-03T06:50:32.325Z,16.24
2016-07-03T06:51:32.304Z,16.23
2016-07-03T06:52:32.286Z,16.31
2016-07-03T06:53:32.266Z,16.32
2016-07-03T06:54:32.247Z,16.36
2016-07-03T06:55:32.226Z,16.43
2016-07-03T06:56:32.215Z,16.49
2016-07-03T06:57:32.200Z,16.57
2016-07-03T06:58:32.181Z,16.56
2016-07-03T06:59:32.156Z,16.51
2016-07-03T07:00:32.139Z,16.57
2016-07-03T07:01:32.118Z,16.56
2016-07-03T07:02:32.093Z,16.53
2016-07-03T07:03:32.080Z,16.47
2016-07-03T07:04:32.060Z,16.51
2016-07-03T07:05:32.035Z,16.51
2016-07-03T07:06:32.022Z,16.49
2016-07-03T07:07:32.008Z,16.38
2016-07-03T07:08:31.981Z,16.39
2016-07-03T07:09:31.961Z,16.41
2016-07-03T07:10:31.945Z,16.51
2016-07-03T07:11:31.924Z,16.42
2016-07-03T07:12:31.908Z,16.42
2016-07-03T07:13:31.886Z,16.35
2016-07-03T07:14:31.877Z,16.46
2016-07-03T07:15:31.850Z,16.41
2016-07-03T07:16:32.437Z,16.47
2016-07-03T07:17:31.811Z,16.5
2016-07-03T07:18:31.795Z,16.58
2016-07-03T07:19:31.774Z,16.69
2016-07-03T07:20:31.758Z,16.72
2016-07-03T07:21:31.735Z,16.79
2016-07-03T07:22:31.724Z,16.74
2016-07-03T07:23:31.699Z,16.71
2016-07-03T07:24:31.683Z,16.71
2016-07-03T07:25:31.659Z,16.64
2016-07-03T07:26:31.647Z,16.6
2016-07-03T07:27:31.627Z,16.65
2016-07-03T07:28:31.604Z,16.66
2016-07-03T07:29:31.582Z,16.72
2016-07-03T07:30:31.573Z,16.74
2016-07-03T07:31:31.548Z,16.81
2016-07-03T07:32:31.530Z,16.91
2016-07-03T07:33:31.503Z,16.86
2016-07-03T07:34:31.499Z,16.94
2016-07-03T07:35:31.479Z,16.93
2016-07-03T07:36:31.460Z,17.02
2016-07-03T07:37:31.438Z,16.96
2016-07-03T07:38:31.420Z,16.94
2016-07-03T07:39:31.400Z,17.09
2016-07-03T07:40:31.385Z,17.19
2016-07-03T07:41:31.369Z,17.16
2016-07-03T07:42:31.349Z,17.15
2016-07-03T07:43:31.334Z,17.16
2016-07-03T07:44:31.320Z,17.14
2016-07-03T07:45:31.300Z,17.27
2016-07-03T07:46:31.278Z,17.3
2016-07-03T07:47:31.269Z,17.27
2016-07-03T07:48:31.262Z,17.24
2016-07-03T07:49:31.231Z,17.45
2016-07-03T07:50:31.217Z,17.44
2016-07-03T07:51:31.194Z,17.44
2016-07-03T07:52:31.181Z,17.48
2016-07-03T07:53:31.158Z,17.56
2016-07-03T07:54:31.146Z,17.68
2016-07-03T07:55:31.125Z,17.67
2016-07-03T07:56:31.106Z,17.7
2016-07-03T07:57:31.091Z,17.72
2016-07-03T07:58:31.076Z,17.8
2016-07-03T07:59:31.065Z,17.79
2016-07-03T08:00:31.048Z,17.85
2016-07-03T08:01:31.020Z,17.97
2016-07-03T08:02:31.012Z,17.9
2016-07-03T08:03:30.990Z,17.98
2016-07-03T08:04:30.979Z,18.07
2016-07-03T08:05:31.047Z,18.11
2016-07-03T08:06:30.948Z,18.19
2016-07-03T08:07:30.925Z,18.28
2016-07-03T08:08:30.913Z,18.34
2016-07-03T08:09:30.891Z,18.49
2016-07-03T08:10:30.879Z,18.5
2016-07-03T08:11:30.869Z,18.56
2016-07-03T08:12:30.850Z,18.52
2016-07-03T08:13:30.832Z,18.58
2016-07-03T08:14:30.818Z,18.6
2016-07-03T08:15:30.802Z,18.66
2016-07-03T08:16:30.793Z,18.63
2016-07-03T08:17:30.769Z,18.7
2016-07-03T08:18:30.761Z,18.84
2016-07-03T08:19:30.746Z,18.89
2016-07-03T08:20:30.729Z,19.02
2016-07-03T08:21:30.717Z,19.16
2016-07-03T08:22:30.708Z,19.33
2016-07-03T08:23:30.698Z,19.36
2016-07-03T08:24:30.672Z,19.45
2016-07-03T08:25:30.660Z,19.45
2016-07-03T08:26:30.651Z,19.49
2016-07-03T08:27:30.636Z,19.76
2016-07-03T08:28:30.621Z,19.92
2016-07-03T08:29:30.608Z,19.89
2016-07-03T08:30:30.599Z,20.02
2016-07-03T08:31:30.595Z,19.96
2016-07-03T08:32:30.581Z,19.94
2016-07-03T08:33:30.572Z,20.02
2016-07-03T08:34:30.557Z,20.22
2016-07-03T08:35:30.549Z,20.28
2016-07-03T08:36:30.539Z,20.32
2016-07-03T08:37:30.528Z,20.29
2016-07-03T08:38:30.515Z,20.31
2016-07-03T08:39:30.504Z,20.43
2016-07-03T08:40:30.490Z,20.51
2016-07-03T08:41:30.484Z,20.5
2016-07-03T08:42:30.468Z,20.58
2016-07-03T08:43:30.458Z,20.7
2016-07-03T08:44:30.443Z,20.8
2016-07-03T08:45:30.434Z,20.82
2016-07-03T08:46:30.428Z,20.97
2016-07-03T08:47:30.414Z,21.11
2016-07-03T08:48:30.397Z,21.36
2016-07-03T08:49:30.389Z,21.6
2016-07-03T08:50:30.385Z,21.7
2016-07-03T08:51:30.380Z,21.76
2016-07-03T08:52:30.364Z,21.75
2016-07-03T08:53:30.363Z,21.96
2016-07-03T08:54:30.346Z,21.91
2016-07-03T08:55:30.336Z,21.92
2016-07-03T08:56:30.331Z,22.02
2016-07-03T08:57:30.316Z,22.06
2016-07-03T08:58:30.295Z,21.88
2016-07-03T08:59:30.891Z,21.91
2016-07-03T09:00:30.285Z,21.96
2016-07-03T09:01:30.278Z,22
2016-07-03T09:02:30.470Z,22.1
2016-07-03T09:03:30.310Z,22.08
2016-07-03T09:04:30.250Z,22.06
2016-07-03T09:05:30.252Z,22
2016-07-03T09:06:30.242Z,22.11
2016-07-03T09:07:30.224Z,22.13
2016-07-03T09:08:30.221Z,22.11
2016-07-03T09:09:30.224Z,22.06
2016-07-03T09:10:30.204Z,22.02
2016-07-03T09:11:30.199Z,21.91
2016-07-03T09:12:30.186Z,21.89
2016-07-03T09:13:30.178Z,21.8
2016-07-03T09:14:30.167Z,21.76
2016-07-03T09:15:30.154Z,21.83
2016-07-03T09:16:30.140Z,21.92
2016-07-03T09:17:30.135Z,21.93
2016-07-03T09:18:30.130Z,22.1
2016-07-03T09:19:30.120Z,22.18
2016-07-03T09:20:30.114Z,22.43
2016-07-03T09:21:30.104Z,22.54
2016-07-03T09:22:30.084Z,22.72
2016-07-03T09:23:30.075Z,22.78
2016-07-03T09:24:30.071Z,22.8
2016-07-03T09:25:30.061Z,22.76
2016-07-03T09:26:30.051Z,22.81
2016-07-03T09:27:30.051Z,22.88
2016-07-03T09:28:30.035Z,22.81
2016-07-03T09:29:30.030Z,22.81
2016-07-03T09:30:30.022Z,22.69
2016-07-03T09:31:30.016Z,22.73
2016-07-03T09:32:30.145Z,22.87
2016-07-03T09:33:30.599Z,22.94
2016-07-03T09:34:29.987Z,23.12
2016-07-03T09:35:29.984Z,23.39
2016-07-03T09:36:29.973Z,23.48
2016-07-03T09:37:29.977Z,23.66
2016-07-03T09:38:29.958Z,23.54
2016-07-03T09:39:29.957Z,23.62
2016-07-03T09:40:29.956Z,23.55
2016-07-03T09:41:29.946Z,23.65
2016-07-03T09:42:29.942Z,23.69
2016-07-03T09:43:29.931Z,23.81
2016-07-03T09:44:29.924Z,23.78
2016-07-03T09:45:29.922Z,23.8
2016-07-03T09:46:29.912Z,23.76
2016-07-03T09:47:29.909Z,23.55
2016-07-03T09:48:29.897Z,23.59
2016-07-03T09:49:29.886Z,23.51
2016-07-03T09:50:29.876Z,23.61
2016-07-03T09:51:29.878Z,23.65
2016-07-03T09:52:29.862Z,23.77
2016-07-03T09:53:29.848Z,23.84
2016-07-03T09:54:29.849Z,23.83
2016-07-03T09:55:29.844Z,23.98
2016-07-03T09:56:29.828Z,23.87
2016-07-03T09:57:29.827Z,23.74
2016-07-03T09:58:29.814Z,23.68
2016-07-03T09:59:29.803Z,23.61
2016-07-03T10:00:29.810Z,23.48
2016-07-03T10:01:29.796Z,23.56
2016-07-03T10:02:29.785Z,23.63
2016-07-03T10:03:29.779Z,23.55
2016-07-03T10:04:29.769Z,23.61
2016-07-03T10:05:29.759Z,23.61
2016-07-03T10:06:29.759Z,23.93
2016-07-03T10:07:29.745Z,24.18
2016-07-03T10:08:29.732Z,24.3
2016-07-03T10:09:29.731Z,24.28
2016-07-03T10:10:29.726Z,24.11
2016-07-03T10:11:29.717Z,23.95
2016-07-03T10:12:29.704Z,23.8
2016-07-03T10:13:29.706Z,23.59
2016-07-03T10:14:29.691Z,23.62
2016-07-03T10:15:29.679Z,23.62
2016-07-03T10:16:29.668Z,23.59
2016-07-03T10:17:29.672Z,23.65
2016-07-03T10:18:29.667Z,23.61
2016-07-03T10:19:29.648Z,23.58
2016-07-03T10:20:29.636Z,23.58
2016-07-03T10:21:29.622Z,23.63
2016-07-03T10:22:29.612Z,23.59
2016-07-03T10:23:29.608Z,23.55
2016-07-03T10:24:29.592Z,23.43
2016-07-03T10:25:29.588Z,23.31
2016-07-03T10:26:29.573Z,23.23
2016-07-03T10:27:29.564Z,22.94
2016-07-03T10:28:29.559Z,23.02
2016-07-03T10:29:29.535Z,22.73
2016-07-03T10:30:29.534Z,22.57
2016-07-03T10:31:29.523Z,22.41
2016-07-03T10:32:29.512Z,22.11
2016-07-03T10:33:29.500Z,21.82
2016-07-03T10:34:29.493Z,21.62
2016-07-03T10:35:29.469Z,21.43
2016-07-03T10:36:29.453Z,21.21
2016-07-03T10:37:29.449Z,21.03
2016-07-03T10:38:29.432Z,20.9
2016-07-03T10:39:29.408Z,20.81
2016-07-03T10:40:29.399Z,20.74
2016-07-03T10:41:29.388Z,20.77
2016-07-03T10:42:29.372Z,20.66
2016-07-03T10:43:29.356Z,20.66
2016-07-03T10:44:29.341Z,20.65
2016-07-03T10:45:29.333Z,20.56
2016-07-03T10:46:29.314Z,20.43
2016-07-03T10:47:29.296Z,20.31
2016-07-03T10:48:29.283Z,20.41
2016-07-03T10:49:29.270Z,20.55
2016-07-03T10:50:29.254Z,20.59
2016-07-03T10:51:29.235Z,20.58
2016-07-03T10:52:29.222Z,20.59
2016-07-03T10:53:29.215Z,20.56
2016-07-03T10:54:29.192Z,20.52
2016-07-03T10:55:29.179Z,20.44
2016-07-03T10:56:29.166Z,20.36
2016-07-03T10:57:29.154Z,20.39
2016-07-03T10:58:29.143Z,20.37
2016-07-03T10:59:29.121Z,20.34
2016-07-03T11:00:29.707Z,20.39
2016-07-03T11:01:29.092Z,20.4
2016-07-03T11:02:29.070Z,20.37
2016-07-03T11:03:29.056Z,20.37
2016-07-03T11:04:29.052Z,20.28
2016-07-03T11:05:29.039Z,20.31
2016-07-03T11:06:29.025Z,20.36
2016-07-03T11:07:29.000Z,20.51
2016-07-03T11:08:29.000Z,20.58
2016-07-03T11:09:28.982Z,20.75
2016-07-03T11:10:28.978Z,20.92
2016-07-03T11:11:28.956Z,21.2
2016-07-03T11:12:28.938Z,21.57
2016-07-03T11:13:28.934Z,21.85
2016-07-03T11:14:28.919Z,22.15
2016-07-03T11:15:28.910Z,22.48
2016-07-03T11:16:28.899Z,22.93
2016-07-03T11:17:28.896Z,23.15
2016-07-03T11:18:28.882Z,23.51
2016-07-03T11:19:28.876Z,23.76
2016-07-03T11:20:28.865Z,24.08
2016-07-03T11:21:28.864Z,24.33
2016-07-03T11:22:28.854Z,24.65
2016-07-03T11:23:28.847Z,24.89
2016-07-03T11:24:28.838Z,25.21
2016-07-03T11:25:28.833Z,25.4
2016-07-03T11:26:28.831Z,25.62
2016-07-03T11:27:28.825Z,25.84
2016-07-03T11:28:28.810Z,26.09
2016-07-03T11:29:28.822Z,26.4
2016-07-03T11:30:28.814Z,26.37
2016-07-03T11:31:28.797Z,26.53
2016-07-03T11:32:28.804Z,26.6
2016-07-03T11:33:28.806Z,26.73
2016-07-03T11:34:28.793Z,26.95
2016-07-03T11:35:28.789Z,27.11
2016-07-03T11:36:28.791Z,27.12
2016-07-03T11:37:28.791Z,27
2016-07-03T11:38:28.789Z,26.99
2016-07-03T11:39:28.788Z,27.11
2016-07-03T11:40:28.780Z,26.97
2016-07-03T11:41:28.777Z,26.6
2016-07-03T11:42:28.773Z,26.48
2016-07-03T11:43:28.773Z,26.28
2016-07-03T11:44:28.765Z,26.19
2016-07-03T11:45:28.763Z,26.06
2016-07-03T11:46:28.748Z,26.02
2016-07-03T11:47:28.748Z,25.88
2016-07-03T11:48:29.078Z,25.8
2016-07-03T11:49:28.735Z,25.65
2016-07-03T11:50:28.759Z,25.62
2016-07-03T11:51:28.723Z,25.46
2016-07-03T11:52:28.714Z,25.17
2016-07-03T11:53:28.702Z,24.93
2016-07-03T11:54:28.698Z,24.76
2016-07-03T11:55:28.689Z,24.55
2016-07-03T11:56:28.680Z,24.3
2016-07-03T11:57:28.667Z,24.26
2016-07-03T11:58:28.654Z,24.03
2016-07-03T11:59:28.645Z,23.83
2016-07-03T12:00:28.637Z,23.58
2016-07-03T12:01:28.629Z,23.5
2016-07-03T12:02:28.618Z,23.25
2016-07-03T12:03:28.603Z,22.94
2016-07-03T12:04:28.592Z,22.7
2016-07-03T12:05:28.572Z,22.26
2016-07-03T12:06:28.569Z,21.69
2016-07-03T12:07:28.546Z,20.97
2016-07-03T12:08:28.545Z,20.48
2016-07-03T12:09:28.526Z,19.99
2016-07-03T12:10:28.515Z,19.39
2016-07-03T12:11:28.494Z,18.81
2016-07-03T12:12:28.480Z,18.34
2016-07-03T12:13:28.466Z,18.04
2016-07-03T12:14:28.457Z,17.79
2016-07-03T12:15:28.433Z,17.7
2016-07-03T12:16:28.423Z,17.46
2016-07-03T12:17:28.400Z,17.34
2016-07-03T12:18:28.382Z,17.22
2016-07-03T12:19:28.362Z,17.05
2016-07-03T12:20:28.350Z,17.04
2016-07-03T12:21:28.331Z,16.96
2016-07-03T12:22:28.314Z,17.01
2016-07-03T12:23:28.289Z,16.86
2016-07-03T12:24:28.279Z,16.87
2016-07-03T12:25:28.255Z,16.71
2016-07-03T12:26:28.243Z,16.6
2016-07-03T12:27:28.219Z,16.42
2016-07-03T12:28:28.205Z,16.29
2016-07-03T12:29:28.182Z,16.26
2016-07-03T12:30:28.171Z,16.02
2016-07-03T12:31:28.140Z,16.05
2016-07-03T12:32:28.124Z,16.08
2016-07-03T12:33:28.101Z,16.05
2016-07-03T12:34:28.085Z,16.05
2016-07-03T12:35:28.065Z,16
2016-07-03T12:36:28.048Z,16.04
2016-07-03T12:37:28.026Z,16.08
2016-07-03T12:38:28.005Z,16.13
2016-07-03T12:39:27.990Z,16.15
2016-07-03T12:40:27.963Z,16.21
2016-07-03T12:41:27.947Z,16.32
2016-07-03T12:42:27.927Z,16.42
2016-07-03T12:43:27.912Z,16.58
2016-07-03T12:44:27.892Z,16.65
2016-07-03T12:45:27.876Z,16.65
2016-07-03T12:46:27.868Z,16.64
2016-07-03T12:47:27.836Z,16.69
2016-07-03T12:48:27.816Z,16.75
2016-07-03T12:49:27.802Z,16.87
2016-07-03T12:50:27.792Z,16.93
2016-07-03T12:51:27.765Z,16.97
2016-07-03T12:52:27.743Z,16.97
2016-07-03T12:53:27.725Z,17.01
2016-07-03T12:54:27.705Z,16.97
2016-07-03T12:55:27.689Z,16.91